sensor_id;sensor_type;location;lat;lon;timestamp;P1;durP1;ratioP1;P2;durP2;ratioP2
4819;SDS011;2424;49.696;6.630;2024-03-17T00:02:49;2.83;;;2.07;;
4819;SDS011;2424;49.696;6.630;2024-03-17T00:08:11;0.87;;;0.87;;
4819;SDS011;2424;49.696;6.630;2024-03-17T00:13:34;1.10;;;1.10;;
4819;SDS011;2424;49.696;6.630;2024-03-17T00:18:58;1.80;;;1.70;;
4819;SDS011;2424;49.696;6.630;2024-03-17T00:24:20;1.47;;;1.47;;
4819;SDS011;2424;49.696;6.630;2024-03-17T00:29:42;1.40;;;1.30;;
4819;SDS011;2424;49.696;6.630;2024-03-17T00:35:06;1.60;;;1.53;;
4819;SDS011;2424;49.696;6.630;2024-03-17T00:40:28;1.33;;;1.23;;
4819;SDS011;2424;49.696;6.630;2024-03-17T00:45:51;1.77;;;1.67;;
4819;SDS011;2424;49.696;6.630;2024-03-17T00:51:14;2.13;;;2.03;;
4819;SDS011;2424;49.696;6.630;2024-03-17T00:56:36;1.70;;;1.23;;
4819;SDS011;2424;49.696;6.630;2024-03-17T01:01:58;1.10;;;1.07;;
4819;SDS011;2424;49.696;6.630;2024-03-17T01:07:21;0.97;;;0.97;;
4819;SDS011;2424;49.696;6.630;2024-03-17T01:12:44;1.60;;;1.50;;
4819;SDS011;2424;49.696;6.630;2024-03-17T01:18:06;1.33;;;1.33;;
4819;SDS011;2424;49.696;6.630;2024-03-17T01:23:30;1.40;;;1.40;;
4819;SDS011;2424;49.696;6.630;2024-03-17T01:28:52;1.70;;;1.60;;
4819;SDS011;2424;49.696;6.630;2024-03-17T01:34:14;1.40;;;1.10;;
4819;SDS011;2424;49.696;6.630;2024-03-17T01:39:37;1.20;;;1.10;;
4819;SDS011;2424;49.696;6.630;2024-03-17T01:44:59;1.40;;;1.40;;
4819;SDS011;2424;49.696;6.630;2024-03-17T01:50:21;1.70;;;0.93;;
4819;SDS011;2424;49.696;6.630;2024-03-17T01:55:46;0.63;;;0.60;;
4819;SDS011;2424;49.696;6.630;2024-03-17T02:01:08;0.67;;;0.67;;
4819;SDS011;2424;49.696;6.630;2024-03-17T02:06:30;0.60;;;0.60;;
4819;SDS011;2424;49.696;6.630;2024-03-17T02:11:54;0.47;;;0.47;;
4819;SDS011;2424;49.696;6.630;2024-03-17T02:17:16;0.53;;;0.53;;
4819;SDS011;2424;49.696;6.630;2024-03-17T02:22:39;0.60;;;0.60;;
4819;SDS011;2424;49.696;6.630;2024-03-17T02:28:01;0.67;;;0.67;;
4819;SDS011;2424;49.696;6.630;2024-03-17T02:33:24;0.57;;;0.57;;
4819;SDS011;2424;49.696;6.630;2024-03-17T02:38:48;0.80;;;0.80;;
4819;SDS011;2424;49.696;6.630;2024-03-17T02:44:27;0.70;;;0.70;;
4819;SDS011;2424;49.696;6.630;2024-03-17T02:49:51;1.93;;;0.87;;
4819;SDS011;2424;49.696;6.630;2024-03-17T02:55:15;0.90;;;0.90;;
4819;SDS011;2424;49.696;6.630;2024-03-17T03:00:37;4.20;;;1.30;;
4819;SDS011;2424;49.696;6.630;2024-03-17T03:06:00;0.63;;;0.63;;
4819;SDS011;2424;49.696;6.630;2024-03-17T03:11:25;0.40;;;0.40;;
4819;SDS011;2424;49.696;6.630;2024-03-17T03:16:47;0.77;;;0.77;;
4819;SDS011;2424;49.696;6.630;2024-03-17T03:22:10;0.40;;;0.40;;
4819;SDS011;2424;49.696;6.630;2024-03-17T03:27:33;0.63;;;0.63;;
4819;SDS011;2424;49.696;6.630;2024-03-17T03:32:55;0.67;;;0.67;;
4819;SDS011;2424;49.696;6.630;2024-03-17T03:38:17;0.83;;;0.83;;
4819;SDS011;2424;49.696;6.630;2024-03-17T03:43:41;2.27;;;0.57;;
4819;SDS011;2424;49.696;6.630;2024-03-17T03:49:03;1.10;;;1.10;;
4819;SDS011;2424;49.696;6.630;2024-03-17T03:54:25;0.53;;;0.53;;
4819;SDS011;2424;49.696;6.630;2024-03-17T03:59:48;0.50;;;0.50;;
4819;SDS011;2424;49.696;6.630;2024-03-17T04:05:10;0.50;;;0.50;;
4819;SDS011;2424;49.696;6.630;2024-03-17T04:10:32;0.70;;;0.70;;
4819;SDS011;2424;49.696;6.630;2024-03-17T04:15:55;0.60;;;0.60;;
4819;SDS011;2424;49.696;6.630;2024-03-17T04:21:18;0.67;;;0.67;;
4819;SDS011;2424;49.696;6.630;2024-03-17T04:26:41;0.50;;;0.50;;
4819;SDS011;2424;49.696;6.630;2024-03-17T04:32:05;0.63;;;0.63;;
4819;SDS011;2424;49.696;6.630;2024-03-17T04:37:27;1.00;;;0.93;;
4819;SDS011;2424;49.696;6.630;2024-03-17T04:42:49;0.50;;;0.50;;
4819;SDS011;2424;49.696;6.630;2024-03-17T04:48:12;0.40;;;0.40;;
4819;SDS011;2424;49.696;6.630;2024-03-17T04:53:34;0.40;;;0.40;;
4819;SDS011;2424;49.696;6.630;2024-03-17T04:58:56;0.77;;;0.77;;
4819;SDS011;2424;49.696;6.630;2024-03-17T05:04:19;0.80;;;0.80;;
4819;SDS011;2424;49.696;6.630;2024-03-17T05:09:41;0.73;;;0.73;;
4819;SDS011;2424;49.696;6.630;2024-03-17T05:15:04;0.53;;;0.53;;
4819;SDS011;2424;49.696;6.630;2024-03-17T05:20:28;0.57;;;0.53;;
4819;SDS011;2424;49.696;6.630;2024-03-17T05:25:51;0.50;;;0.50;;
4819;SDS011;2424;49.696;6.630;2024-03-17T05:31:12;0.83;;;0.83;;
4819;SDS011;2424;49.696;6.630;2024-03-17T05:36:39;1.00;;;0.57;;
4819;SDS011;2424;49.696;6.630;2024-03-17T05:42:01;1.23;;;0.57;;
4819;SDS011;2424;49.696;6.630;2024-03-17T05:47:23;0.83;;;0.70;;
4819;SDS011;2424;49.696;6.630;2024-03-17T05:52:47;0.70;;;0.70;;
4819;SDS011;2424;49.696;6.630;2024-03-17T05:58:09;0.67;;;0.67;;
4819;SDS011;2424;49.696;6.630;2024-03-17T06:03:31;0.70;;;0.67;;
4819;SDS011;2424;49.696;6.630;2024-03-17T06:08:57;3.70;;;0.77;;
4819;SDS011;2424;49.696;6.630;2024-03-17T06:14:19;0.90;;;0.90;;
4819;SDS011;2424;49.696;6.630;2024-03-17T06:19:41;0.60;;;0.60;;
4819;SDS011;2424;49.696;6.630;2024-03-17T06:25:05;0.77;;;0.63;;
4819;SDS011;2424;49.696;6.630;2024-03-17T06:30:27;0.53;;;0.53;;
4819;SDS011;2424;49.696;6.630;2024-03-17T06:35:49;0.40;;;0.40;;
4819;SDS011;2424;49.696;6.630;2024-03-17T06:41:13;0.53;;;0.53;;
4819;SDS011;2424;49.696;6.630;2024-03-17T06:46:35;0.90;;;0.90;;
4819;SDS011;2424;49.696;6.630;2024-03-17T06:51:57;1.20;;;1.20;;
4819;SDS011;2424;49.696;6.630;2024-03-17T06:57:20;1.30;;;1.20;;
4819;SDS011;2424;49.696;6.630;2024-03-17T07:02:42;1.07;;;0.97;;
4819;SDS011;2424;49.696;6.630;2024-03-17T07:08:05;1.40;;;1.40;;
4819;SDS011;2424;49.696;6.630;2024-03-17T07:13:29;0.93;;;0.93;;
4819;SDS011;2424;49.696;6.630;2024-03-17T07:18:51;1.07;;;1.07;;
4819;SDS011;2424;49.696;6.630;2024-03-17T07:24:13;1.17;;;1.10;;
4819;SDS011;2424;49.696;6.630;2024-03-17T07:29:37;1.13;;;1.10;;
4819;SDS011;2424;49.696;6.630;2024-03-17T07:34:59;1.60;;;1.50;;
4819;SDS011;2424;49.696;6.630;2024-03-17T07:40:20;1.87;;;1.70;;
4819;SDS011;2424;49.696;6.630;2024-03-17T07:45:44;2.17;;;1.60;;
4819;SDS011;2424;49.696;6.630;2024-03-17T07:51:06;1.43;;;1.37;;
4819;SDS011;2424;49.696;6.630;2024-03-17T07:56:30;1.00;;;1.00;;
4819;SDS011;2424;49.696;6.630;2024-03-17T08:01:53;1.47;;;1.17;;
4819;SDS011;2424;49.696;6.630;2024-03-17T08:07:15;1.43;;;1.43;;
4819;SDS011;2424;49.696;6.630;2024-03-17T08:12:37;1.63;;;1.53;;
4819;SDS011;2424;49.696;6.630;2024-03-17T08:18:00;2.00;;;1.20;;
4819;SDS011;2424;49.696;6.630;2024-03-17T08:23:22;1.27;;;1.27;;
4819;SDS011;2424;49.696;6.630;2024-03-17T08:28:45;2.30;;;1.30;;
4819;SDS011;2424;49.696;6.630;2024-03-17T08:34:09;2.63;;;2.20;;
4819;SDS011;2424;49.696;6.630;2024-03-17T08:39:31;1.10;;;1.10;;
4819;SDS011;2424;49.696;6.630;2024-03-17T08:44:52;0.97;;;0.97;;
4819;SDS011;2424;49.696;6.630;2024-03-17T08:50:16;1.03;;;1.03;;
4819;SDS011;2424;49.696;6.630;2024-03-17T08:55:38;1.80;;;1.70;;
4819;SDS011;2424;49.696;6.630;2024-03-17T09:01:04;1.73;;;1.67;;
4819;SDS011;2424;49.696;6.630;2024-03-17T09:06:28;0.80;;;0.80;;
4819;SDS011;2424;49.696;6.630;2024-03-17T09:11:51;1.40;;;1.30;;
4819;SDS011;2424;49.696;6.630;2024-03-17T09:17:12;1.10;;;1.10;;
4819;SDS011;2424;49.696;6.630;2024-03-17T09:22:36;1.20;;;1.20;;
4819;SDS011;2424;49.696;6.630;2024-03-17T09:27:58;1.33;;;1.23;;
4819;SDS011;2424;49.696;6.630;2024-03-17T09:33:20;1.03;;;1.03;;
4819;SDS011;2424;49.696;6.630;2024-03-17T09:38:44;1.90;;;1.80;;
4819;SDS011;2424;49.696;6.630;2024-03-17T09:44:09;2.30;;;2.20;;
4819;SDS011;2424;49.696;6.630;2024-03-17T09:49:34;1.80;;;1.70;;
4819;SDS011;2424;49.696;6.630;2024-03-17T09:54:59;1.67;;;1.63;;
4819;SDS011;2424;49.696;6.630;2024-03-17T10:00:22;2.00;;;1.80;;
4819;SDS011;2424;49.696;6.630;2024-03-17T10:05:44;0.90;;;0.90;;
4819;SDS011;2424;49.696;6.630;2024-03-17T10:11:07;2.03;;;1.70;;
4819;SDS011;2424;49.696;6.630;2024-03-17T10:16:30;6.63;;;2.37;;
4819;SDS011;2424;49.696;6.630;2024-03-17T10:21:57;3.43;;;2.60;;
4819;SDS011;2424;49.696;6.630;2024-03-17T10:27:22;3.40;;;2.03;;
4819;SDS011;2424;49.696;6.630;2024-03-17T10:32:44;2.17;;;0.90;;
4819;SDS011;2424;49.696;6.630;2024-03-17T10:38:08;1.30;;;1.30;;
4819;SDS011;2424;49.696;6.630;2024-03-17T10:43:35;2.80;;;1.70;;
4819;SDS011;2424;49.696;6.630;2024-03-17T10:48:58;4.23;;;2.43;;
4819;SDS011;2424;49.696;6.630;2024-03-17T10:54:22;6.87;;;2.43;;
4819;SDS011;2424;49.696;6.630;2024-03-17T10:59:50;3.80;;;2.40;;
4819;SDS011;2424;49.696;6.630;2024-03-17T11:05:14;8.10;;;4.30;;
4819;SDS011;2424;49.696;6.630;2024-03-17T11:10:41;6.60;;;3.43;;
4819;SDS011;2424;49.696;6.630;2024-03-17T11:16:26;3.63;;;2.27;;
4819;SDS011;2424;49.696;6.630;2024-03-17T11:21:48;4.83;;;2.40;;
4819;SDS011;2424;49.696;6.630;2024-03-17T11:33:03;8.90;;;3.50;;
4819;SDS011;2424;49.696;6.630;2024-03-17T11:38:51;5.40;;;3.70;;
4819;SDS011;2424;49.696;6.630;2024-03-17T11:44:14;4.40;;;3.40;;
4819;SDS011;2424;49.696;6.630;2024-03-17T11:49:48;3.47;;;2.13;;
4819;SDS011;2424;49.696;6.630;2024-03-17T11:55:16;4.20;;;2.43;;
4819;SDS011;2424;49.696;6.630;2024-03-17T12:00:38;4.50;;;2.77;;
4819;SDS011;2424;49.696;6.630;2024-03-17T12:06:03;4.53;;;2.67;;
4819;SDS011;2424;49.696;6.630;2024-03-17T12:11:26;7.07;;;3.50;;
4819;SDS011;2424;49.696;6.630;2024-03-17T12:16:48;3.07;;;2.30;;
4819;SDS011;2424;49.696;6.630;2024-03-17T12:22:15;4.90;;;3.33;;
4819;SDS011;2424;49.696;6.630;2024-03-17T12:27:41;1.60;;;1.50;;
4819;SDS011;2424;49.696;6.630;2024-03-17T12:33:05;1.57;;;1.47;;
4819;SDS011;2424;49.696;6.630;2024-03-17T12:38:33;2.77;;;2.40;;
4819;SDS011;2424;49.696;6.630;2024-03-17T12:43:55;3.10;;;1.67;;
4819;SDS011;2424;49.696;6.630;2024-03-17T12:49:17;2.20;;;1.67;;
4819;SDS011;2424;49.696;6.630;2024-03-17T12:54:40;2.97;;;2.67;;
4819;SDS011;2424;49.696;6.630;2024-03-17T13:00:16;2.73;;;1.93;;
4819;SDS011;2424;49.696;6.630;2024-03-17T13:05:54;1.90;;;1.67;;
4819;SDS011;2424;49.696;6.630;2024-03-17T13:11:17;3.80;;;2.33;;
4819;SDS011;2424;49.696;6.630;2024-03-17T13:16:39;3.53;;;2.60;;
4819;SDS011;2424;49.696;6.630;2024-03-17T13:22:01;3.07;;;1.80;;
4819;SDS011;2424;49.696;6.630;2024-03-17T13:27:24;1.93;;;1.83;;
4819;SDS011;2424;49.696;6.630;2024-03-17T13:32:46;1.60;;;1.50;;
4819;SDS011;2424;49.696;6.630;2024-03-17T13:38:10;2.77;;;1.73;;
4819;SDS011;2424;49.696;6.630;2024-03-17T13:43:34;2.23;;;1.70;;
4819;SDS011;2424;49.696;6.630;2024-03-17T13:48:57;1.90;;;1.50;;
4819;SDS011;2424;49.696;6.630;2024-03-17T13:54:28;2.60;;;1.63;;
4819;SDS011;2424;49.696;6.630;2024-03-17T13:59:51;1.93;;;1.70;;
4819;SDS011;2424;49.696;6.630;2024-03-17T14:05:15;1.43;;;1.30;;
4819;SDS011;2424;49.696;6.630;2024-03-17T14:10:38;1.03;;;1.03;;
4819;SDS011;2424;49.696;6.630;2024-03-17T14:16:01;2.00;;;1.60;;
4819;SDS011;2424;49.696;6.630;2024-03-17T14:21:23;1.07;;;1.07;;
4819;SDS011;2424;49.696;6.630;2024-03-17T14:26:45;1.60;;;1.50;;
4819;SDS011;2424;49.696;6.630;2024-03-17T14:32:08;1.10;;;1.10;;
4819;SDS011;2424;49.696;6.630;2024-03-17T14:37:30;1.13;;;1.13;;
4819;SDS011;2424;49.696;6.630;2024-03-17T14:42:52;0.50;;;0.50;;
4819;SDS011;2424;49.696;6.630;2024-03-17T14:48:16;0.60;;;0.60;;
4819;SDS011;2424;49.696;6.630;2024-03-17T14:53:38;1.47;;;1.37;;
4819;SDS011;2424;49.696;6.630;2024-03-17T14:59:08;0.70;;;0.70;;
4819;SDS011;2424;49.696;6.630;2024-03-17T15:04:33;0.53;;;0.53;;
4819;SDS011;2424;49.696;6.630;2024-03-17T15:09:55;0.30;;;0.30;;
4819;SDS011;2424;49.696;6.630;2024-03-17T15:15:18;0.70;;;0.70;;
4819;SDS011;2424;49.696;6.630;2024-03-17T15:20:41;0.60;;;0.60;;
4819;SDS011;2424;49.696;6.630;2024-03-17T15:26:05;0.90;;;0.90;;
4819;SDS011;2424;49.696;6.630;2024-03-17T15:31:28;1.33;;;1.17;;
4819;SDS011;2424;49.696;6.630;2024-03-17T15:36:52;1.70;;;1.00;;
4819;SDS011;2424;49.696;6.630;2024-03-17T15:42:14;1.40;;;1.13;;
4819;SDS011;2424;49.696;6.630;2024-03-17T15:47:37;1.73;;;1.20;;
4819;SDS011;2424;49.696;6.630;2024-03-17T15:53:00;0.93;;;0.90;;
4819;SDS011;2424;49.696;6.630;2024-03-17T15:58:23;0.60;;;0.60;;
4819;SDS011;2424;49.696;6.630;2024-03-17T16:03:45;0.50;;;0.50;;
4819;SDS011;2424;49.696;6.630;2024-03-17T16:09:09;0.60;;;0.60;;
4819;SDS011;2424;49.696;6.630;2024-03-17T16:14:33;0.80;;;0.80;;
4819;SDS011;2424;49.696;6.630;2024-03-17T16:19:58;1.23;;;1.17;;
4819;SDS011;2424;49.696;6.630;2024-03-17T16:25:21;0.77;;;0.77;;
4819;SDS011;2424;49.696;6.630;2024-03-17T16:30:43;1.10;;;1.10;;
4819;SDS011;2424;49.696;6.630;2024-03-17T16:36:05;1.00;;;1.00;;
4819;SDS011;2424;49.696;6.630;2024-03-17T16:41:30;0.80;;;0.80;;
4819;SDS011;2424;49.696;6.630;2024-03-17T16:47:06;2.17;;;1.13;;
4819;SDS011;2424;49.696;6.630;2024-03-17T16:52:40;0.60;;;0.60;;
4819;SDS011;2424;49.696;6.630;2024-03-17T16:58:03;1.10;;;1.10;;
4819;SDS011;2424;49.696;6.630;2024-03-17T17:03:26;2.17;;;0.97;;
4819;SDS011;2424;49.696;6.630;2024-03-17T17:08:48;2.50;;;2.30;;
4819;SDS011;2424;49.696;6.630;2024-03-17T17:14:11;1.20;;;1.20;;
4819;SDS011;2424;49.696;6.630;2024-03-17T17:19:35;1.00;;;1.00;;
4819;SDS011;2424;49.696;6.630;2024-03-17T17:24:58;4.00;;;2.50;;
4819;SDS011;2424;49.696;6.630;2024-03-17T17:30:22;8.13;;;2.43;;
4819;SDS011;2424;49.696;6.630;2024-03-17T17:35:46;7.20;;;4.40;;
4819;SDS011;2424;49.696;6.630;2024-03-17T17:41:08;1.00;;;1.00;;
4819;SDS011;2424;49.696;6.630;2024-03-17T17:46:35;2.00;;;1.87;;
4819;SDS011;2424;49.696;6.630;2024-03-17T17:51:57;1.10;;;1.00;;
4819;SDS011;2424;49.696;6.630;2024-03-17T17:57:19;1.50;;;1.50;;
4819;SDS011;2424;49.696;6.630;2024-03-17T18:02:43;1.10;;;1.10;;
4819;SDS011;2424;49.696;6.630;2024-03-17T18:08:05;0.73;;;0.73;;
4819;SDS011;2424;49.696;6.630;2024-03-17T18:13:27;1.00;;;1.00;;
4819;SDS011;2424;49.696;6.630;2024-03-17T18:18:52;1.17;;;1.17;;
4819;SDS011;2424;49.696;6.630;2024-03-17T18:24:14;0.97;;;0.93;;
4819;SDS011;2424;49.696;6.630;2024-03-17T18:29:36;1.70;;;1.27;;
4819;SDS011;2424;49.696;6.630;2024-03-17T18:35:00;0.87;;;0.87;;
4819;SDS011;2424;49.696;6.630;2024-03-17T18:40:22;0.90;;;0.90;;
4819;SDS011;2424;49.696;6.630;2024-03-17T18:45:44;0.90;;;0.90;;
4819;SDS011;2424;49.696;6.630;2024-03-17T18:51:07;1.03;;;1.03;;
4819;SDS011;2424;49.696;6.630;2024-03-17T18:56:32;0.83;;;0.70;;
4819;SDS011;2424;49.696;6.630;2024-03-17T19:01:54;0.60;;;0.60;;
4819;SDS011;2424;49.696;6.630;2024-03-17T19:07:21;0.80;;;0.80;;
4819;SDS011;2424;49.696;6.630;2024-03-17T19:12:46;1.13;;;1.13;;
4819;SDS011;2424;49.696;6.630;2024-03-17T19:18:12;0.80;;;0.77;;
4819;SDS011;2424;49.696;6.630;2024-03-17T19:23:36;0.70;;;0.70;;
4819;SDS011;2424;49.696;6.630;2024-03-17T19:28:59;0.70;;;0.70;;
4819;SDS011;2424;49.696;6.630;2024-03-17T19:34:21;0.77;;;0.77;;
4819;SDS011;2424;49.696;6.630;2024-03-17T19:39:46;0.93;;;0.80;;
4819;SDS011;2424;49.696;6.630;2024-03-17T19:45:08;1.80;;;0.90;;
4819;SDS011;2424;49.696;6.630;2024-03-17T19:50:30;0.80;;;0.80;;
4819;SDS011;2424;49.696;6.630;2024-03-17T19:55:53;0.90;;;0.90;;
4819;SDS011;2424;49.696;6.630;2024-03-17T20:01:15;0.60;;;0.60;;
4819;SDS011;2424;49.696;6.630;2024-03-17T20:06:38;0.70;;;0.70;;
4819;SDS011;2424;49.696;6.630;2024-03-17T20:12:01;0.97;;;0.97;;
4819;SDS011;2424;49.696;6.630;2024-03-17T20:17:25;0.70;;;0.70;;
4819;SDS011;2424;49.696;6.630;2024-03-17T20:22:46;1.30;;;1.30;;
4819;SDS011;2424;49.696;6.630;2024-03-17T20:28:10;1.93;;;1.83;;
4819;SDS011;2424;49.696;6.630;2024-03-17T20:33:33;0.87;;;0.87;;
4819;SDS011;2424;49.696;6.630;2024-03-17T20:38:55;1.27;;;1.17;;
4819;SDS011;2424;49.696;6.630;2024-03-17T20:44:18;0.80;;;0.80;;
4819;SDS011;2424;49.696;6.630;2024-03-17T20:49:41;0.70;;;0.70;;
4819;SDS011;2424;49.696;6.630;2024-03-17T20:55:03;0.77;;;0.77;;
4819;SDS011;2424;49.696;6.630;2024-03-17T21:00:28;0.73;;;0.70;;
4819;SDS011;2424;49.696;6.630;2024-03-17T21:05:50;4.30;;;1.20;;
4819;SDS011;2424;49.696;6.630;2024-03-17T21:11:12;0.93;;;0.93;;
4819;SDS011;2424;49.696;6.630;2024-03-17T21:16:37;0.57;;;0.57;;
4819;SDS011;2424;49.696;6.630;2024-03-17T21:21:59;0.80;;;0.80;;
4819;SDS011;2424;49.696;6.630;2024-03-17T21:27:21;1.10;;;0.77;;
4819;SDS011;2424;49.696;6.630;2024-03-17T21:32:46;1.00;;;0.80;;
4819;SDS011;2424;49.696;6.630;2024-03-17T21:38:10;0.67;;;0.67;;
4819;SDS011;2424;49.696;6.630;2024-03-17T21:43:32;0.70;;;0.70;;
4819;SDS011;2424;49.696;6.630;2024-03-17T21:48:55;0.70;;;0.70;;
4819;SDS011;2424;49.696;6.630;2024-03-17T21:54:18;3.53;;;0.90;;
4819;SDS011;2424;49.696;6.630;2024-03-17T21:59:39;0.93;;;0.93;;
4819;SDS011;2424;49.696;6.630;2024-03-17T22:05:03;0.80;;;0.80;;
4819;SDS011;2424;49.696;6.630;2024-03-17T22:10:26;1.03;;;1.03;;
4819;SDS011;2424;49.696;6.630;2024-03-17T22:15:52;0.67;;;0.67;;
4819;SDS011;2424;49.696;6.630;2024-03-17T22:21:16;0.97;;;0.73;;
4819;SDS011;2424;49.696;6.630;2024-03-17T22:26:38;0.57;;;0.57;;
4819;SDS011;2424;49.696;6.630;2024-03-17T22:32:00;0.43;;;0.40;;
4819;SDS011;2424;49.696;6.630;2024-03-17T22:37:26;1.47;;;0.60;;
4819;SDS011;2424;49.696;6.630;2024-03-17T22:42:48;0.97;;;0.70;;
4819;SDS011;2424;49.696;6.630;2024-03-17T22:48:09;0.60;;;0.60;;
4819;SDS011;2424;49.696;6.630;2024-03-17T22:53:35;2.30;;;0.70;;
4819;SDS011;2424;49.696;6.630;2024-03-17T22:58:57;0.70;;;0.70;;
4819;SDS011;2424;49.696;6.630;2024-03-17T23:04:19;0.60;;;0.60;;
4819;SDS011;2424;49.696;6.630;2024-03-17T23:09:43;1.33;;;0.70;;
4819;SDS011;2424;49.696;6.630;2024-03-17T23:15:06;2.47;;;1.50;;
4819;SDS011;2424;49.696;6.630;2024-03-17T23:20:28;1.73;;;0.80;;
4819;SDS011;2424;49.696;6.630;2024-03-17T23:25:51;0.90;;;0.90;;
4819;SDS011;2424;49.696;6.630;2024-03-17T23:31:13;0.87;;;0.80;;
4819;SDS011;2424;49.696;6.630;2024-03-17T23:36:35;0.63;;;0.63;;
4819;SDS011;2424;49.696;6.630;2024-03-17T23:41:58;0.57;;;0.57;;
4819;SDS011;2424;49.696;6.630;2024-03-17T23:47:21;1.10;;;1.10;;
4819;SDS011;2424;49.696;6.630;2024-03-17T23:52:43;2.10;;;1.00;;
4819;SDS011;2424;49.696;6.630;2024-03-17T23:58:09;2.00;;;0.70;;
